createdAt,value
2022-08-19T00:00:30.107Z,16.51
2022-08-19T00:02:58.834Z,16.65
2022-08-19T00:05:27.807Z,16.58
2022-08-19T00:07:56.119Z,16.51
2022-08-19T00:10:24.948Z,16.48
2022-08-19T00:12:54.342Z,16.37
2022-08-19T00:15:23.644Z,16.29
2022-08-19T00:17:52.238Z,15.85
2022-08-19T00:20:23.052Z,16.32
2022-08-19T00:22:51.248Z,16.12
2022-08-19T00:25:19.199Z,16.05
2022-08-19T00:28:00.328Z,16.04
2022-08-19T00:30:28.416Z,15.91
2022-08-19T00:32:56.635Z,15.95
2022-08-19T00:35:26.268Z,15.80
2022-08-19T00:37:55.837Z,15.60
2022-08-19T00:40:26.371Z,15.64
2022-08-19T00:42:55.335Z,15.75
2022-08-19T00:45:27.704Z,15.83
2022-08-19T00:47:55.586Z,15.98
2022-08-19T00:50:25.072Z,15.70
2022-08-19T00:52:53.529Z,15.40
2022-08-19T00:55:26.447Z,15.68
2022-08-19T00:57:57.039Z,15.60
2022-08-19T01:00:28.852Z,15.70
2022-08-19T01:02:57.101Z,15.50
2022-08-19T01:05:28.436Z,15.49
2022-08-19T01:07:59.281Z,15.38
2022-08-19T01:10:33.544Z,15.51
2022-08-19T01:13:05.057Z,15.86
2022-08-19T01:15:40.267Z,15.60
2022-08-19T01:18:09.584Z,15.36
2022-08-19T01:20:37.624Z,15.84
2022-08-19T01:23:07.024Z,15.62
2022-08-19T01:25:40.669Z,15.14
2022-08-19T01:28:10.613Z,15.15
2022-08-19T01:30:38.964Z,15.20
2022-08-19T01:33:12.392Z,14.99
2022-08-19T01:35:41.203Z,14.85
2022-08-19T01:38:22.604Z,15.23
2022-08-19T01:40:50.525Z,15.63
2022-08-19T01:43:19.923Z,15.30
2022-08-19T01:45:48.643Z,15.25
2022-08-19T01:48:16.664Z,15.33
2022-08-19T01:50:44.648Z,15.11
2022-08-19T01:53:17.193Z,15.01
2022-08-19T01:55:46.386Z,15.08
2022-08-19T01:58:17.752Z,14.99
2022-08-19T02:00:46.184Z,14.83
2022-08-19T02:03:14.891Z,14.82
2022-08-19T02:05:43.899Z,14.90
2022-08-19T02:08:12.635Z,14.75
2022-08-19T02:10:45.828Z,14.59
2022-08-19T02:13:15.714Z,14.56
2022-08-19T02:15:49.341Z,14.93
2022-08-19T02:18:18.241Z,14.60
2022-08-19T02:20:47.950Z,14.94
2022-08-19T02:23:16.642Z,15.06
2022-08-19T02:25:50.303Z,15.20
2022-08-19T02:28:19.262Z,15.01
2022-08-19T02:30:48.552Z,14.82
2022-08-19T02:33:18.759Z,15.22
2022-08-19T02:35:48.131Z,15.08
2022-08-19T02:38:26.889Z,15.83
2022-08-19T02:40:58.827Z,15.79
2022-08-19T02:43:28.397Z,15.70
2022-08-19T02:45:57.747Z,15.58
2022-08-19T02:48:27.689Z,15.87
2022-08-19T02:50:56.741Z,15.61
2022-08-19T02:53:26.396Z,15.26
2022-08-19T02:55:54.591Z,15.27
2022-08-19T02:58:25.391Z,15.22
2022-08-19T03:00:56.632Z,15.23
2022-08-19T03:03:24.703Z,15.39
2022-08-19T03:05:56.872Z,15.47
2022-08-19T03:08:26.902Z,15.41
2022-08-19T03:10:55.699Z,15.51
2022-08-19T03:13:25.279Z,15.61
2022-08-19T03:15:53.598Z,15.75
2022-08-19T03:18:23.322Z,15.72
2022-08-19T03:20:53.931Z,15.77
2022-08-19T03:23:22.298Z,15.63
2022-08-19T03:26:03.981Z,15.65
2022-08-19T03:28:51.351Z,15.24
2022-08-19T03:31:44.764Z,15.36
2022-08-19T03:34:13.544Z,15.27
2022-08-19T03:36:42.503Z,15.22
2022-08-19T03:39:11.436Z,15.23
2022-08-19T03:41:45.523Z,15.41
2022-08-19T03:44:17.994Z,15.43
2022-08-19T03:46:47.135Z,15.49
2022-08-19T03:49:15.573Z,15.56
2022-08-19T03:51:46.101Z,15.67
2022-08-19T03:54:16.615Z,15.74
2022-08-19T03:56:46.940Z,15.89
2022-08-19T03:59:17.759Z,15.96
2022-08-19T04:01:46.627Z,15.75
2022-08-19T04:04:14.486Z,15.51
2022-08-19T04:06:42.316Z,15.37
2022-08-19T04:09:11.984Z,15.31
2022-08-19T04:11:44.509Z,15.18
2022-08-19T04:14:15.175Z,15.07
2022-08-19T04:16:45.766Z,15.06
2022-08-19T04:19:14.262Z,15.10
2022-08-19T04:21:42.292Z,15.12
2022-08-19T04:24:11.315Z,15.16
2022-08-19T04:26:40.114Z,15.15
2022-08-19T04:29:12.776Z,15.20
2022-08-19T04:31:42.126Z,15.21
2022-08-19T04:34:12.847Z,15.23
2022-08-19T04:36:43.096Z,15.26
2022-08-19T04:39:13.911Z,15.06
2022-08-19T04:42:00.041Z,15.18
2022-08-19T04:44:33.106Z,15.64
2022-08-19T04:47:02.115Z,15.25
2022-08-19T04:49:40.386Z,15.50
2022-08-19T04:52:09.463Z,15.43
2022-08-19T04:54:39.403Z,15.72
2022-08-19T04:57:11.165Z,15.82
2022-08-19T04:59:40.746Z,15.54
2022-08-19T05:02:09.477Z,15.51
2022-08-19T05:04:40.191Z,15.49
2022-08-19T05:07:11.133Z,15.60
2022-08-19T05:09:58.427Z,15.61
2022-08-19T05:12:29.214Z,15.47
2022-08-19T05:14:57.714Z,15.56
2022-08-19T05:17:28.406Z,15.91
2022-08-19T05:20:16.658Z,15.67
2022-08-19T05:22:50.035Z,15.76
2022-08-19T05:25:21.470Z,16.01
2022-08-19T05:27:49.806Z,16.09
2022-08-19T05:30:18.983Z,16.19
2022-08-19T05:32:58.089Z,16.31
2022-08-19T05:35:26.075Z,16.37
2022-08-19T05:37:59.015Z,16.49
2022-08-19T05:40:27.151Z,16.72
2022-08-19T05:42:56.959Z,16.85
2022-08-19T05:45:25.595Z,17.01
2022-08-19T05:47:54.235Z,17.19
2022-08-19T05:50:23.563Z,17.47
2022-08-19T05:53:52.822Z,17.72
2022-08-19T05:56:22.146Z,17.92
2022-08-19T05:58:49.877Z,18.03
2022-08-19T06:01:20.190Z,18.20
2022-08-19T06:03:48.716Z,18.35
2022-08-19T06:06:18.498Z,18.50
2022-08-19T06:08:51.609Z,18.67
2022-08-19T06:11:24.692Z,18.88
2022-08-19T06:13:59.815Z,18.87
2022-08-19T06:16:29.374Z,18.89
2022-08-19T06:18:58.584Z,18.88
2022-08-19T06:21:29.464Z,18.83
2022-08-19T06:23:58.288Z,18.74
2022-08-19T06:26:28.563Z,18.77
2022-08-19T06:28:56.344Z,18.71
2022-08-19T06:31:27.330Z,18.64
2022-08-19T06:33:56.055Z,18.68
2022-08-19T06:36:28.029Z,18.89
2022-08-19T06:38:56.050Z,18.94
2022-08-19T06:41:23.936Z,19.07
2022-08-19T06:43:54.212Z,19.09
2022-08-19T06:46:24.506Z,19.23
2022-08-19T06:48:54.242Z,19.33
2022-08-19T06:51:23.268Z,19.37
2022-08-19T06:53:54.871Z,19.58
2022-08-19T06:56:26.716Z,19.75
2022-08-19T06:58:57.018Z,19.77
2022-08-19T07:01:24.876Z,19.96
2022-08-19T07:03:53.224Z,20.08
2022-08-19T07:09:10.585Z,20.14
2022-08-19T07:11:40.400Z,20.26
2022-08-19T07:14:19.171Z,20.23
2022-08-19T07:16:49.866Z,20.48
2022-08-19T07:19:18.606Z,20.55
2022-08-19T07:21:47.635Z,20.73
2022-08-19T07:24:16.292Z,20.74
2022-08-19T07:26:46.068Z,20.90
2022-08-19T07:29:17.531Z,21.00
2022-08-19T07:31:46.173Z,20.90
2022-08-19T07:34:15.713Z,20.99
2022-08-19T07:37:46.398Z,21.06
2022-08-19T07:40:14.819Z,21.05
2022-08-19T07:43:46.941Z,21.05
2022-08-19T07:47:49.678Z,21.24
2022-08-19T07:50:07.708Z,21.42
2022-08-19T07:52:36.955Z,21.44
2022-08-19T07:55:06.179Z,21.51
2022-08-19T07:57:34.998Z,21.59
2022-08-19T08:00:03.374Z,21.61
2022-08-19T08:02:32.026Z,21.68
2022-08-19T08:05:17.190Z,21.49
2022-08-19T08:08:03.616Z,21.83
2022-08-19T08:10:31.538Z,21.88
2022-08-19T08:13:09.220Z,22.09
2022-08-19T08:15:43.169Z,22.16
2022-08-19T08:18:12.944Z,22.20
2022-08-19T08:21:46.647Z,22.74
2022-08-19T08:24:19.668Z,23.18
2022-08-19T08:26:52.011Z,23.02
2022-08-19T08:29:20.376Z,23.29
2022-08-19T08:31:49.660Z,23.50
2022-08-19T08:35:32.587Z,23.91
2022-08-19T08:38:01.882Z,24.38
2022-08-19T08:40:35.780Z,24.17
2022-08-19T08:43:22.337Z,23.94
2022-08-19T08:45:54.624Z,23.99
2022-08-19T08:48:27.222Z,23.83
2022-08-19T08:50:57.524Z,23.63
2022-08-19T08:53:29.827Z,23.60
2022-08-19T08:56:04.897Z,23.68
2022-08-19T08:58:43.050Z,23.82
2022-08-19T09:01:11.877Z,23.78
2022-08-19T09:03:43.366Z,24.85
2022-08-19T09:06:16.957Z,24.86
2022-08-19T09:08:51.365Z,24.19
2022-08-19T09:11:44.467Z,24.44
2022-08-19T09:14:47.262Z,25.27
2022-08-19T09:17:09.688Z,24.70
2022-08-19T09:19:38.157Z,24.68
2022-08-19T09:22:08.647Z,24.71
2022-08-19T09:24:39.413Z,24.43
2022-08-19T09:27:18.419Z,25.03
2022-08-19T09:29:47.390Z,24.75
2022-08-19T09:32:26.260Z,24.55
2022-08-19T09:34:55.596Z,25.12
2022-08-19T09:37:24.080Z,25.20
2022-08-19T09:39:53.417Z,24.78
2022-08-19T09:42:30.553Z,25.35
2022-08-19T09:45:04.958Z,25.67
2022-08-19T09:47:33.773Z,25.22
2022-08-19T09:50:02.255Z,25.51
2022-08-19T09:52:32.839Z,25.74
2022-08-19T09:55:01.139Z,25.97
2022-08-19T09:57:37.686Z,25.93
2022-08-19T10:00:07.133Z,25.57
2022-08-19T10:02:35.064Z,26.30
2022-08-19T10:05:23.122Z,26.30
2022-08-19T10:07:56.819Z,25.95
2022-08-19T10:10:26.538Z,25.83
2022-08-19T10:12:57.142Z,26.13
2022-08-19T10:15:29.206Z,26.07
2022-08-19T10:18:01.017Z,25.59
2022-08-19T10:20:30.364Z,25.88
2022-08-19T10:23:00.280Z,25.65
2022-08-19T10:25:29.720Z,25.67
2022-08-19T10:28:01.502Z,25.94
2022-08-19T10:30:29.394Z,25.92
2022-08-19T10:32:57.110Z,26.80
2022-08-19T10:35:27.492Z,25.86
2022-08-19T10:37:57.615Z,26.67
2022-08-19T10:40:30.542Z,26.78
2022-08-19T10:42:59.670Z,26.15
2022-08-19T10:45:28.124Z,27.20
2022-08-19T10:47:56.394Z,27.07
2022-08-19T10:50:42.853Z,26.73
2022-08-19T10:53:12.380Z,26.27
2022-08-19T10:56:06.893Z,26.11
2022-08-19T10:58:36.145Z,26.17
2022-08-19T11:01:03.824Z,26.66
2022-08-19T11:03:32.186Z,26.81
2022-08-19T11:06:00.929Z,26.94
2022-08-19T11:08:28.747Z,26.90
2022-08-19T11:11:01.685Z,26.86
2022-08-19T11:13:30.890Z,27.04
2022-08-19T11:16:08.276Z,26.39
2022-08-19T11:18:38.300Z,26.60
2022-08-19T11:21:11.499Z,26.23
2022-08-19T11:23:39.772Z,26.30
2022-08-19T11:26:07.735Z,26.59
2022-08-19T11:28:35.605Z,26.95
2022-08-19T11:31:05.147Z,27.50
2022-08-19T11:33:33.704Z,28.13
2022-08-19T11:36:02.671Z,27.34
2022-08-19T11:38:31.508Z,27.86
2022-08-19T11:41:00.320Z,27.73
2022-08-19T11:43:28.821Z,26.76
2022-08-19T11:45:57.119Z,26.68
2022-08-19T11:48:27.859Z,26.49
2022-08-19T11:50:57.482Z,26.20
2022-08-19T11:53:25.924Z,26.38
2022-08-19T11:55:57.027Z,26.60
2022-08-19T11:58:25.805Z,26.80
2022-08-19T12:00:54.038Z,27.00
2022-08-19T12:03:21.671Z,26.33
2022-08-19T12:05:52.419Z,26.75
2022-08-19T12:08:20.961Z,27.10
2022-08-19T12:10:48.670Z,27.36
2022-08-19T12:13:19.549Z,27.27
2022-08-19T12:15:48.950Z,27.63
2022-08-19T12:18:17.142Z,27.25
2022-08-19T12:20:46.959Z,27.36
2022-08-19T12:23:16.539Z,27.30
2022-08-19T12:25:49.504Z,28.26
2022-08-19T12:28:17.762Z,27.84
2022-08-19T12:30:45.648Z,27.89
2022-08-19T12:33:14.650Z,28.07
2022-08-19T12:35:45.675Z,28.38
2022-08-19T12:38:14.263Z,28.20
2022-08-19T12:40:43.820Z,27.29
2022-08-19T12:43:12.610Z,27.35
2022-08-19T12:45:40.781Z,27.57
2022-08-19T12:48:34.435Z,28.26
2022-08-19T12:50:58.294Z,28.19
2022-08-19T12:53:27.315Z,28.71
2022-08-19T12:55:58.627Z,27.24
2022-08-19T12:58:27.453Z,27.26
2022-08-19T13:00:55.943Z,27.81
2022-08-19T13:03:28.398Z,28.18
2022-08-19T13:05:57.340Z,28.15
2022-08-19T13:08:25.581Z,27.94
2022-08-19T13:10:54.482Z,27.31
2022-08-19T13:13:23.889Z,29.10
2022-08-19T13:15:52.056Z,29.18
2022-08-19T13:18:20.078Z,27.84
2022-08-19T13:20:52.746Z,29.23
2022-08-19T13:23:20.950Z,29.55
2022-08-19T13:25:58.095Z,30.95
2022-08-19T13:28:49.398Z,29.43
2022-08-19T13:31:35.954Z,27.49
2022-08-19T13:34:03.656Z,30.27
2022-08-19T13:36:31.580Z,31.15
2022-08-19T13:39:00.246Z,29.99
2022-08-19T13:41:28.883Z,30.52
2022-08-19T13:43:58.218Z,30.78
2022-08-19T13:46:26.040Z,29.44
2022-08-19T13:48:55.529Z,30.93
2022-08-19T13:51:23.837Z,33.60
2022-08-19T13:53:52.759Z,33.60
2022-08-19T13:56:25.549Z,32.02
2022-08-19T13:58:54.745Z,30.85
2022-08-19T14:01:31.778Z,30.37
2022-08-19T14:04:00.519Z,28.87
2022-08-19T14:06:28.526Z,28.57
2022-08-19T14:08:56.283Z,27.99
2022-08-19T14:11:24.583Z,27.83
2022-08-19T14:13:53.055Z,27.67
2022-08-19T14:16:20.879Z,27.88
2022-08-19T14:18:50.306Z,28.02
2022-08-19T14:21:22.184Z,27.95
2022-08-19T14:23:52.149Z,29.55
2022-08-19T14:26:21.501Z,30.78
2022-08-19T14:28:50.329Z,30.18
2022-08-19T14:31:20.450Z,29.92
2022-08-19T14:33:52.792Z,30.14
2022-08-19T14:36:22.806Z,29.23
2022-08-19T14:38:51.007Z,28.93
2022-08-19T14:41:22.873Z,28.90
2022-08-19T14:43:54.136Z,28.53
2022-08-19T14:46:24.185Z,28.02
2022-08-19T14:48:54.855Z,28.10
2022-08-19T14:51:27.456Z,28.55
2022-08-19T14:53:57.599Z,28.26
2022-08-19T14:56:27.288Z,28.15
2022-08-19T14:58:55.969Z,28.16
2022-08-19T15:01:24.852Z,28.28
2022-08-19T15:03:55.753Z,27.54
2022-08-19T15:06:24.743Z,27.92
2022-08-19T15:08:54.285Z,27.79
2022-08-19T15:11:24.500Z,27.86
2022-08-19T15:13:53.457Z,27.99
2022-08-19T15:16:22.264Z,28.20
2022-08-19T15:18:51.981Z,27.62
2022-08-19T15:21:26.489Z,27.87
2022-08-19T15:23:57.292Z,27.34
2022-08-19T15:26:28.637Z,27.43
2022-08-19T15:28:57.664Z,27.39
2022-08-19T15:31:29.078Z,27.20
2022-08-19T15:33:58.413Z,27.19
2022-08-19T15:36:31.176Z,27.34
2022-08-19T15:39:00.093Z,27.17
2022-08-19T15:41:32.544Z,27.27
2022-08-19T15:44:08.217Z,27.24
2022-08-19T15:46:38.021Z,27.31
2022-08-19T15:49:07.157Z,27.31
2022-08-19T15:51:41.879Z,27.31
2022-08-19T15:54:12.144Z,27.38
2022-08-19T15:56:58.678Z,27.23
2022-08-19T15:59:47.510Z,27.08
2022-08-19T16:02:33.065Z,27.16
2022-08-19T16:05:21.466Z,26.89
2022-08-19T16:07:51.148Z,26.81
2022-08-19T16:10:26.920Z,26.86
2022-08-19T16:12:58.616Z,26.70
2022-08-19T16:15:28.004Z,26.88
2022-08-19T16:17:58.521Z,26.82
2022-08-19T16:20:28.181Z,26.64
2022-08-19T16:22:58.684Z,26.76
2022-08-19T16:25:28.951Z,26.89
2022-08-19T16:28:06.260Z,26.79
2022-08-19T16:30:34.992Z,26.69
2022-08-19T16:33:05.041Z,26.67
2022-08-19T16:35:34.035Z,26.67
2022-08-19T16:38:07.131Z,26.65
2022-08-19T16:40:36.266Z,26.51
2022-08-19T16:43:04.469Z,26.46
2022-08-19T16:45:32.590Z,26.54
2022-08-19T16:48:00.250Z,26.52
2022-08-19T16:50:47.842Z,26.52
2022-08-19T16:53:22.889Z,26.75
2022-08-19T16:55:57.454Z,26.51
2022-08-19T16:58:28.040Z,26.48
2022-08-19T17:01:02.048Z,26.63
2022-08-19T17:03:35.834Z,26.68
2022-08-19T17:06:16.164Z,26.72
2022-08-19T17:08:52.974Z,26.60
2022-08-19T17:11:22.992Z,26.49
2022-08-19T17:14:52.397Z,26.48
2022-08-19T17:17:23.800Z,26.39
2022-08-19T17:19:56.618Z,26.44
2022-08-19T17:23:42.663Z,26.39
2022-08-19T17:26:15.857Z,26.42
2022-08-19T17:28:49.243Z,26.20
2022-08-19T17:32:24.918Z,26.24
2022-08-19T17:34:54.927Z,26.15
2022-08-19T17:37:24.011Z,26.29
2022-08-19T17:39:51.807Z,26.52
2022-08-19T17:42:23.628Z,26.43
2022-08-19T17:48:32.859Z,26.17
2022-08-19T17:51:01.155Z,26.25
2022-08-19T17:53:29.590Z,26.31
2022-08-19T17:55:57.356Z,26.31
2022-08-19T17:58:28.594Z,26.15
2022-08-19T18:00:57.715Z,26.25
2022-08-19T18:03:26.627Z,26.11
2022-08-19T18:05:56.021Z,26.05
2022-08-19T18:08:25.701Z,25.77
2022-08-19T18:10:54.358Z,25.63
2022-08-19T18:13:22.089Z,25.56
2022-08-19T18:15:54.531Z,25.46
2022-08-19T18:18:23.460Z,25.33
2022-08-19T18:20:51.567Z,25.17
2022-08-19T18:23:44.754Z,25.07
2022-08-19T18:26:09.318Z,24.94
2022-08-19T18:28:47.934Z,24.88
2022-08-19T18:31:19.494Z,24.84
2022-08-19T18:33:48.178Z,24.75
2022-08-19T18:36:27.864Z,24.61
2022-08-19T18:39:19.416Z,24.31
2022-08-19T18:42:06.377Z,24.17
2022-08-19T18:44:59.226Z,24.05
2022-08-19T18:47:48.573Z,23.95
2022-08-19T18:50:16.352Z,23.93
2022-08-19T18:52:44.573Z,23.84
2022-08-19T18:55:16.476Z,23.74
2022-08-19T18:57:44.417Z,23.68
2022-08-19T19:00:14.177Z,23.63
2022-08-19T19:02:44.241Z,23.59
2022-08-19T19:05:14.458Z,23.49
2022-08-19T19:07:42.892Z,23.45
2022-08-19T19:10:11.794Z,23.42
2022-08-19T19:12:44.446Z,23.31
2022-08-19T19:15:12.362Z,23.19
2022-08-19T19:17:42.108Z,23.19
2022-08-19T19:20:12.058Z,23.11
2022-08-19T19:22:40.764Z,23.05
2022-08-19T19:25:12.050Z,23.01
2022-08-19T19:27:40.907Z,22.96
2022-08-19T19:30:09.714Z,22.95
2022-08-19T19:32:39.134Z,22.98
2022-08-19T19:35:09.808Z,22.92
2022-08-19T19:37:43.640Z,22.87
2022-08-19T19:40:11.705Z,22.74
2022-08-19T19:42:39.613Z,22.75
2022-08-19T19:45:08.380Z,22.75
2022-08-19T19:47:36.429Z,22.73
2022-08-19T19:50:14.195Z,22.65
2022-08-19T19:52:46.706Z,22.56
2022-08-19T19:55:18.310Z,22.53
2022-08-19T19:57:47.444Z,22.53
2022-08-19T20:00:18.450Z,22.49
2022-08-19T20:02:50.199Z,22.48
2022-08-19T20:05:21.025Z,22.40
2022-08-19T20:08:11.944Z,22.37
2022-08-19T20:10:42.706Z,22.40
2022-08-19T20:13:11.016Z,22.35
2022-08-19T20:15:43.574Z,22.32
2022-08-19T20:18:13.427Z,22.31
2022-08-19T20:20:41.801Z,22.36
2022-08-19T20:23:11.001Z,22.32
2022-08-19T20:25:39.826Z,22.31
2022-08-19T20:28:07.528Z,22.29
2022-08-19T20:30:36.287Z,22.25
2022-08-19T20:33:08.437Z,22.16
2022-08-19T20:35:38.021Z,22.26
2022-08-19T20:38:08.825Z,22.22
2022-08-19T20:40:41.180Z,22.20
2022-08-19T20:43:11.342Z,22.19
2022-08-19T20:45:39.400Z,22.15
2022-08-19T20:48:08.910Z,22.18
2022-08-19T20:50:37.215Z,22.14
2022-08-19T20:53:12.577Z,22.14
2022-08-19T20:55:45.530Z,22.09
2022-08-19T20:58:14.632Z,22.17
2022-08-19T21:00:45.713Z,22.14
2022-08-19T21:03:14.597Z,22.09
2022-08-19T21:05:42.526Z,22.16
2022-08-19T21:08:10.914Z,22.03
2022-08-19T21:10:42.274Z,21.99
2022-08-19T21:13:14.779Z,21.92
2022-08-19T21:15:44.154Z,21.91
2022-08-19T21:18:13.737Z,21.86
2022-08-19T21:20:42.649Z,21.87
2022-08-19T21:23:13.455Z,21.81
2022-08-19T21:25:41.506Z,21.75
2022-08-19T21:28:29.914Z,21.80
2022-08-19T21:31:10.562Z,21.78
2022-08-19T21:33:39.181Z,21.72
2022-08-19T21:36:07.903Z,21.65
2022-08-19T21:38:36.026Z,21.66
2022-08-19T21:41:06.088Z,21.67
2022-08-19T21:43:35.718Z,21.56
2022-08-19T21:46:06.213Z,21.55
2022-08-19T21:48:34.308Z,21.59
2022-08-19T21:51:02.081Z,21.58
2022-08-19T21:53:34.118Z,21.51
2022-08-19T21:56:04.177Z,21.51
2022-08-19T21:58:31.906Z,21.54
2022-08-19T22:01:06.484Z,21.44
2022-08-19T22:03:34.947Z,21.42
2022-08-19T22:06:02.817Z,21.46
2022-08-19T22:08:31.454Z,21.44
2022-08-19T22:11:00.886Z,21.43
2022-08-19T22:13:32.268Z,21.42
2022-08-19T22:16:01.705Z,21.38
2022-08-19T22:18:31.585Z,21.42
2022-08-19T22:21:00.366Z,21.40
2022-08-19T22:23:28.263Z,21.36
2022-08-19T22:25:56.935Z,21.39
2022-08-19T22:28:28.030Z,21.41
2022-08-19T22:30:57.378Z,21.37
2022-08-19T22:33:27.670Z,21.36
2022-08-19T22:35:55.755Z,21.31
2022-08-19T22:38:24.694Z,21.37
2022-08-19T22:40:53.344Z,21.32
2022-08-19T22:43:24.902Z,21.24
2022-08-19T22:45:54.745Z,21.21
2022-08-19T22:48:24.340Z,21.15
2022-08-19T22:51:56.331Z,21.18
2022-08-19T22:54:27.288Z,21.12
2022-08-19T22:56:56.913Z,21.12
2022-08-19T22:59:25.722Z,21.09
2022-08-19T23:01:54.721Z,21.05
2022-08-19T23:04:23.229Z,21.11
2022-08-19T23:06:52.860Z,21.13
2022-08-19T23:09:23.479Z,21.12
2022-08-19T23:11:56.805Z,21.13
2022-08-19T23:14:26.441Z,21.11
2022-08-19T23:16:58.768Z,21.07
2022-08-19T23:19:27.330Z,21.07
2022-08-19T23:21:57.642Z,21.07
2022-08-19T23:24:26.982Z,21.00
2022-08-19T23:27:15.786Z,20.97
2022-08-19T23:30:01.983Z,20.98
2022-08-19T23:32:29.936Z,20.95
2022-08-19T23:35:59.311Z,20.92
2022-08-19T23:38:30.198Z,20.80
2022-08-19T23:40:59.760Z,20.82
2022-08-19T23:43:31.406Z,20.89
2022-08-19T23:46:10.493Z,20.88
2022-08-19T23:48:39.833Z,20.86
2022-08-19T23:51:10.624Z,20.80
2022-08-19T23:53:39.348Z,20.73
2022-08-19T23:56:08.554Z,20.60
2022-08-19T23:58:39.519Z,20.37
